sensor_id;sensor_type;location;lat;lon;timestamp;pressure;altitude;pressure_sealevel;temperature;humidity
65534;BME280;53640;55.838;37.184;2023-04-16T00:02:12;100657.22;;;3.48;22.07
65534;BME280;53640;55.838;37.184;2023-04-16T00:04:48;100643.81;;;3.38;22.07
65534;BME280;53640;55.838;37.184;2023-04-16T00:07:15;100658.75;;;3.41;22.32
65534;BME280;53640;55.838;37.184;2023-04-16T00:09:41;100609.53;;;3.13;22.26
65534;BME280;53640;55.838;37.184;2023-04-16T00:12:12;100659.84;;;3.38;22.21
65534;BME280;53640;55.838;37.184;2023-04-16T00:14:38;100608.13;;;3.09;22.22
65534;BME280;53640;55.838;37.184;2023-04-16T00:17:05;100541.75;;;2.64;22.33
65534;BME280;53640;55.838;37.184;2023-04-16T00:19:31;100655.75;;;3.34;22.20
65534;BME280;53640;55.838;37.184;2023-04-16T00:21:58;100648.13;;;3.20;22.23
65534;BME280;53640;55.838;37.184;2023-04-16T00:24:24;100617.38;;;3.04;22.08
65534;BME280;53640;55.838;37.184;2023-04-16T00:26:51;100650.66;;;3.21;22.26
65534;BME280;53640;55.838;37.184;2023-04-16T00:29:17;100597.53;;;2.88;22.33
65534;BME280;53640;55.838;37.184;2023-04-16T00:31:43;100616.94;;;2.90;22.41
65534;BME280;53640;55.838;37.184;2023-04-16T00:34:10;100630.19;;;3.01;22.31
65534;BME280;53640;55.838;37.184;2023-04-16T00:36:37;100662.63;;;3.17;22.37
65534;BME280;53640;55.838;37.184;2023-04-16T00:39:04;100640.78;;;3.02;22.22
65534;BME280;53640;55.838;37.184;2023-04-16T00:41:30;100637.25;;;3.02;22.51
65534;BME280;53640;55.838;37.184;2023-04-16T00:43:57;100609.06;;;2.78;22.42
65534;BME280;53640;55.838;37.184;2023-04-16T00:46:23;100615.50;;;2.86;22.30
65534;BME280;53640;55.838;37.184;2023-04-16T00:48:53;100670.19;;;3.12;22.68
65534;BME280;53640;55.838;37.184;2023-04-16T00:51:21;100615.63;;;2.74;22.77
65534;BME280;53640;55.838;37.184;2023-04-16T00:53:48;100657.94;;;3.00;22.61
65534;BME280;53640;55.838;37.184;2023-04-16T00:56:14;100668.22;;;3.04;22.88
65534;BME280;53640;55.838;37.184;2023-04-16T00:58:42;100620.84;;;2.76;22.68
65534;BME280;53640;55.838;37.184;2023-04-16T01:01:09;100669.19;;;3.03;22.81
65534;BME280;53640;55.838;37.184;2023-04-16T01:03:42;100557.44;;;2.38;22.75
65534;BME280;53640;55.838;37.184;2023-04-16T01:06:09;100656.09;;;2.91;22.70
65534;BME280;53640;55.838;37.184;2023-04-16T01:08:36;100601.50;;;2.53;22.82
65534;BME280;53640;55.838;37.184;2023-04-16T01:11:03;100616.72;;;2.62;22.61
65534;BME280;53640;55.838;37.184;2023-04-16T01:13:29;100650.56;;;2.83;23.00
65534;BME280;53640;55.838;37.184;2023-04-16T01:15:56;100546.22;;;2.13;22.96
65534;BME280;53640;55.838;37.184;2023-04-16T01:18:24;100661.97;;;2.85;23.01
65534;BME280;53640;55.838;37.184;2023-04-16T01:20:52;100648.59;;;2.75;23.04
65534;BME280;53640;55.838;37.184;2023-04-16T01:23:19;100666.47;;;2.84;23.06
65534;BME280;53640;55.838;37.184;2023-04-16T01:25:46;100627.69;;;2.59;23.24
65534;BME280;53640;55.838;37.184;2023-04-16T01:28:12;100652.78;;;2.77;22.96
65534;BME280;53640;55.838;37.184;2023-04-16T01:30:44;100563.81;;;2.25;23.08
65534;BME280;53640;55.838;37.184;2023-04-16T01:33:33;100635.16;;;2.65;22.80
65534;BME280;53640;55.838;37.184;2023-04-16T01:36:00;100629.97;;;2.64;22.92
65534;BME280;53640;55.838;37.184;2023-04-16T01:38:27;100606.69;;;2.54;23.00
65534;BME280;53640;55.838;37.184;2023-04-16T01:40:57;100633.34;;;2.66;22.94
65534;BME280;53640;55.838;37.184;2023-04-16T01:43:24;100571.31;;;2.32;23.02
65534;BME280;53640;55.838;37.184;2023-04-16T01:45:53;100576.97;;;2.38;22.95
65534;BME280;53640;55.838;37.184;2023-04-16T01:48:24;100656.50;;;2.86;22.93
65534;BME280;53640;55.838;37.184;2023-04-16T01:50:52;100590.94;;;2.51;22.89
65534;BME280;53640;55.838;37.184;2023-04-16T01:53:20;100605.75;;;2.65;22.96
65534;BME280;53640;55.838;37.184;2023-04-16T01:55:46;100580.13;;;2.53;22.96
65534;BME280;53640;55.838;37.184;2023-04-16T01:58:13;100632.97;;;2.90;22.79
65534;BME280;53640;55.838;37.184;2023-04-16T02:00:40;100617.34;;;2.85;22.73
65534;BME280;53640;55.838;37.184;2023-04-16T02:03:08;100608.91;;;2.80;22.64
65534;BME280;53640;55.838;37.184;2023-04-16T02:05:36;100639.47;;;2.97;23.00
65534;BME280;53640;55.838;37.184;2023-04-16T02:08:02;100639.78;;;2.94;22.84
65534;BME280;53640;55.838;37.184;2023-04-16T02:10:29;100641.00;;;2.90;22.85
65534;BME280;53640;55.838;37.184;2023-04-16T02:12:57;100615.50;;;2.76;22.98
65534;BME280;53640;55.838;37.184;2023-04-16T02:15:23;100655.41;;;2.98;23.13
65534;BME280;53640;55.838;37.184;2023-04-16T02:17:51;100622.81;;;2.74;23.34
65534;BME280;53640;55.838;37.184;2023-04-16T02:20:22;100652.56;;;2.90;23.39
65534;BME280;53640;55.838;37.184;2023-04-16T02:22:55;100598.84;;;2.53;23.36
65534;BME280;53640;55.838;37.184;2023-04-16T02:25:23;100662.97;;;2.84;23.54
65534;BME280;53640;55.838;37.184;2023-04-16T02:27:53;100629.97;;;2.64;23.62
65534;BME280;53640;55.838;37.184;2023-04-16T02:30:31;100662.06;;;2.73;23.75
65534;BME280;53640;55.838;37.184;2023-04-16T02:33:00;100645.28;;;2.62;23.95
65534;BME280;53640;55.838;37.184;2023-04-16T02:35:30;100595.38;;;2.32;24.04
65534;BME280;53640;55.838;37.184;2023-04-16T02:37:57;100638.91;;;2.53;23.85
65534;BME280;53640;55.838;37.184;2023-04-16T02:40:25;100615.50;;;2.36;24.07
65534;BME280;53640;55.838;37.184;2023-04-16T02:42:54;100643.53;;;2.51;23.92
65534;BME280;53640;55.838;37.184;2023-04-16T02:45:20;100621.34;;;2.29;23.98
65534;BME280;53640;55.838;37.184;2023-04-16T02:47:48;100538.72;;;1.76;24.35
65534;BME280;53640;55.838;37.184;2023-04-16T02:50:15;100653.91;;;2.44;24.24
65534;BME280;53640;55.838;37.184;2023-04-16T02:52:41;100576.22;;;1.96;24.29
65534;BME280;53640;55.838;37.184;2023-04-16T02:55:09;100653.22;;;2.42;24.20
65534;BME280;53640;55.838;37.184;2023-04-16T02:57:36;100658.66;;;2.41;24.59
65534;BME280;53640;55.838;37.184;2023-04-16T03:00:03;100588.59;;;1.97;24.26
65534;BME280;53640;55.838;37.184;2023-04-16T03:02:33;100660.78;;;2.37;24.26
65534;BME280;53640;55.838;37.184;2023-04-16T03:05:02;100617.34;;;2.14;24.18
65534;BME280;53640;55.838;37.184;2023-04-16T03:07:30;100666.56;;;2.42;24.42
65534;BME280;53640;55.838;37.184;2023-04-16T03:09:57;100671.19;;;2.40;24.25
65534;BME280;53640;55.838;37.184;2023-04-16T03:12:23;100671.47;;;2.37;24.31
65534;BME280;53640;55.838;37.184;2023-04-16T03:14:50;100649.19;;;2.27;24.34
65534;BME280;53640;55.838;37.184;2023-04-16T03:17:20;100650.63;;;2.31;24.56
65534;BME280;53640;55.838;37.184;2023-04-16T03:19:46;100648.06;;;2.29;24.56
65534;BME280;53640;55.838;37.184;2023-04-16T03:22:13;100671.06;;;2.42;24.46
65534;BME280;53640;55.838;37.184;2023-04-16T03:24:39;100672.91;;;2.41;24.39
65534;BME280;53640;55.838;37.184;2023-04-16T03:27:06;100609.28;;;2.04;24.60
65534;BME280;53640;55.838;37.184;2023-04-16T03:29:37;100644.97;;;2.24;24.57
65534;BME280;53640;55.838;37.184;2023-04-16T03:32:05;100570.47;;;1.79;24.65
65534;BME280;53640;55.838;37.184;2023-04-16T03:34:31;100645.41;;;2.29;24.62
65534;BME280;53640;55.838;37.184;2023-04-16T03:36:58;100672.63;;;2.44;24.60
65534;BME280;53640;55.838;37.184;2023-04-16T03:39:25;100658.81;;;2.39;24.44
65534;BME280;53640;55.838;37.184;2023-04-16T03:41:51;100616.38;;;2.15;24.54
65534;BME280;53640;55.838;37.184;2023-04-16T03:44:18;100643.31;;;2.33;24.37
65534;BME280;53640;55.838;37.184;2023-04-16T03:46:45;100674.38;;;2.55;24.66
65534;BME280;53640;55.838;37.184;2023-04-16T03:49:12;100643.38;;;2.43;24.48
65534;BME280;53640;55.838;37.184;2023-04-16T03:51:38;100674.53;;;2.63;24.65
65534;BME280;53640;55.838;37.184;2023-04-16T03:54:06;100640.75;;;2.52;24.64
65534;BME280;53640;55.838;37.184;2023-04-16T03:56:33;100662.63;;;2.67;24.70
65534;BME280;53640;55.838;37.184;2023-04-16T03:59:00;100654.88;;;2.64;24.59
65534;BME280;53640;55.838;37.184;2023-04-16T04:01:27;100639.94;;;2.62;24.46
65534;BME280;53640;55.838;37.184;2023-04-16T04:03:53;100643.19;;;2.65;24.55
65534;BME280;53640;55.838;37.184;2023-04-16T04:06:20;100609.63;;;2.51;24.29
65534;BME280;53640;55.838;37.184;2023-04-16T04:08:47;100668.47;;;2.92;24.19
65534;BME280;53640;55.838;37.184;2023-04-16T04:11:15;100682.84;;;3.00;24.35
65534;BME280;53640;55.838;37.184;2023-04-16T04:13:44;100648.91;;;2.91;24.28
65534;BME280;53640;55.838;37.184;2023-04-16T04:16:13;100667.38;;;3.04;24.32
65534;BME280;53640;55.838;37.184;2023-04-16T04:18:39;100673.19;;;3.09;24.15
65534;BME280;53640;55.838;37.184;2023-04-16T04:21:08;100641.44;;;2.95;24.01
65534;BME280;53640;55.838;37.184;2023-04-16T04:23:35;100670.34;;;3.11;24.38
65534;BME280;53640;55.838;37.184;2023-04-16T04:26:02;100662.47;;;3.19;23.96
65534;BME280;53640;55.838;37.184;2023-04-16T04:28:31;100601.44;;;2.84;24.20
65534;BME280;53640;55.838;37.184;2023-04-16T04:31:00;100669.28;;;3.33;24.19
65534;BME280;53640;55.838;37.184;2023-04-16T04:33:30;100668.28;;;3.34;24.00
65534;BME280;53640;55.838;37.184;2023-04-16T04:35:57;100673.81;;;3.42;24.13
65534;BME280;53640;55.838;37.184;2023-04-16T04:38:23;100634.34;;;3.24;23.91
65534;BME280;53640;55.838;37.184;2023-04-16T04:40:51;100667.34;;;3.44;24.11
65534;BME280;53640;55.838;37.184;2023-04-16T04:43:20;100673.13;;;3.59;23.76
65534;BME280;53640;55.838;37.184;2023-04-16T04:45:47;100611.22;;;3.23;23.57
65534;BME280;53640;55.838;37.184;2023-04-16T04:48:15;100629.03;;;3.44;23.56
65534;BME280;53640;55.838;37.184;2023-04-16T04:50:44;100677.50;;;3.80;23.59
65534;BME280;53640;55.838;37.184;2023-04-16T04:53:11;100623.97;;;3.50;23.53
65534;BME280;53640;55.838;37.184;2023-04-16T04:55:39;100659.31;;;3.83;23.43
65534;BME280;53640;55.838;37.184;2023-04-16T04:58:08;100635.06;;;3.75;23.78
65534;BME280;53640;55.838;37.184;2023-04-16T05:00:37;100650.00;;;3.97;23.81
65534;BME280;53640;55.838;37.184;2023-04-16T05:03:09;100634.94;;;3.96;23.32
65534;BME280;53640;55.838;37.184;2023-04-16T05:05:38;100679.72;;;4.23;23.60
65534;BME280;53640;55.838;37.184;2023-04-16T05:08:04;100651.97;;;4.14;23.21
65534;BME280;53640;55.838;37.184;2023-04-16T05:10:31;100652.91;;;4.23;23.20
65534;BME280;53640;55.838;37.184;2023-04-16T05:12:57;100665.88;;;4.37;23.33
65534;BME280;53640;55.838;37.184;2023-04-16T05:15:25;100655.59;;;4.33;23.04
65534;BME280;53640;55.838;37.184;2023-04-16T05:17:53;100655.25;;;4.45;22.87
65534;BME280;53640;55.838;37.184;2023-04-16T05:20:22;100670.16;;;4.58;22.98
65534;BME280;53640;55.838;37.184;2023-04-16T05:22:51;100660.16;;;4.60;22.94
65534;BME280;53640;55.838;37.184;2023-04-16T05:25:18;100673.22;;;4.72;22.71
65534;BME280;53640;55.838;37.184;2023-04-16T05:27:45;100656.84;;;4.76;22.49
65534;BME280;53640;55.838;37.184;2023-04-16T05:30:12;100626.50;;;4.65;22.74
65534;BME280;53640;55.838;37.184;2023-04-16T05:32:39;100655.03;;;4.94;22.28
65534;BME280;53640;55.838;37.184;2023-04-16T05:35:06;100643.31;;;4.95;22.34
65534;BME280;53640;55.838;37.184;2023-04-16T05:37:33;100660.06;;;5.07;22.11
65534;BME280;53640;55.838;37.184;2023-04-16T05:39:59;100621.25;;;5.01;22.09
65534;BME280;53640;55.838;37.184;2023-04-16T05:42:26;100589.19;;;5.00;21.85
65534;BME280;53640;55.838;37.184;2023-04-16T05:44:54;100588.69;;;5.14;21.90
65534;BME280;53640;55.838;37.184;2023-04-16T05:47:20;100645.09;;;5.67;21.86
65534;BME280;53640;55.838;37.184;2023-04-16T05:49:46;100646.56;;;5.80;21.19
65534;BME280;53640;55.838;37.184;2023-04-16T05:52:13;100608.50;;;5.66;20.44
65534;BME280;53640;55.838;37.184;2023-04-16T05:54:40;100605.25;;;5.81;20.78
65534;BME280;53640;55.838;37.184;2023-04-16T05:57:07;100631.31;;;6.06;19.57
65534;BME280;53640;55.838;37.184;2023-04-16T05:59:34;100643.91;;;6.32;20.13
65534;BME280;53640;55.838;37.184;2023-04-16T06:02:00;100628.50;;;6.42;20.19
65534;BME280;53640;55.838;37.184;2023-04-16T06:04:26;100590.00;;;6.41;19.28
65534;BME280;53640;55.838;37.184;2023-04-16T06:06:53;100645.94;;;6.90;19.24
65534;BME280;53640;55.838;37.184;2023-04-16T06:09:19;100588.75;;;6.96;19.44
65534;BME280;53640;55.838;37.184;2023-04-16T06:11:47;100611.06;;;7.39;19.82
65534;BME280;53640;55.838;37.184;2023-04-16T06:14:14;100639.38;;;7.68;18.04
65534;BME280;53640;55.838;37.184;2023-04-16T06:16:41;100643.44;;;7.80;17.83
65534;BME280;53640;55.838;37.184;2023-04-16T06:19:09;100632.31;;;7.91;18.06
65534;BME280;53640;55.838;37.184;2023-04-16T06:21:38;100597.94;;;7.77;17.63
65534;BME280;53640;55.838;37.184;2023-04-16T06:24:06;100639.88;;;8.12;17.97
65534;BME280;53640;55.838;37.184;2023-04-16T06:26:32;100627.38;;;8.27;17.61
65534;BME280;53640;55.838;37.184;2023-04-16T06:28:59;100629.22;;;8.35;17.71
65534;BME280;53640;55.838;37.184;2023-04-16T06:31:27;100587.94;;;8.18;17.76
65534;BME280;53640;55.838;37.184;2023-04-16T06:33:54;100603.97;;;8.36;17.65
65534;BME280;53640;55.838;37.184;2023-04-16T06:36:23;100605.13;;;8.33;17.63
65534;BME280;53640;55.838;37.184;2023-04-16T06:38:52;100580.03;;;8.08;17.18
65534;BME280;53640;55.838;37.184;2023-04-16T06:41:29;100513.19;;;7.71;17.04
65534;BME280;53640;55.838;37.184;2023-04-16T06:44:02;100576.34;;;8.01;17.36
65534;BME280;53640;55.838;37.184;2023-04-16T06:46:31;100561.03;;;8.02;17.17
65534;BME280;53640;55.838;37.184;2023-04-16T06:49:53;100621.16;;;8.27;17.10
65534;BME280;53640;55.838;37.184;2023-04-16T06:55:47;100559.13;;;8.10;17.27
65534;BME280;53640;55.838;37.184;2023-04-16T06:58:17;100541.94;;;8.11;17.14
65534;BME280;53640;55.838;37.184;2023-04-16T07:00:44;100556.06;;;8.30;16.81
65534;BME280;53640;55.838;37.184;2023-04-16T07:03:14;100516.63;;;8.12;17.02
65534;BME280;53640;55.838;37.184;2023-04-16T07:05:44;100648.25;;;8.97;16.56
65534;BME280;53640;55.838;37.184;2023-04-16T07:08:21;100622.88;;;8.75;16.73
65534;BME280;53640;55.838;37.184;2023-04-16T07:10:52;100564.28;;;8.45;16.23
65534;BME280;53640;55.838;37.184;2023-04-16T07:13:19;100521.38;;;8.10;15.67
65534;BME280;53640;55.838;37.184;2023-04-16T07:15:50;100635.16;;;8.86;16.09
65534;BME280;53640;55.838;37.184;2023-04-16T07:18:22;100598.44;;;8.69;15.58
65534;BME280;53640;55.838;37.184;2023-04-16T07:20:48;100519.69;;;8.18;15.70
65534;BME280;53640;55.838;37.184;2023-04-16T07:23:25;100629.72;;;8.94;15.74
65534;BME280;53640;55.838;37.184;2023-04-16T07:25:53;100616.94;;;8.80;15.64
65534;BME280;53640;55.838;37.184;2023-04-16T07:28:19;100574.41;;;8.51;15.53
65534;BME280;53640;55.838;37.184;2023-04-16T07:30:46;100511.94;;;8.15;15.43
65534;BME280;53640;55.838;37.184;2023-04-16T07:33:15;100503.66;;;8.16;15.21
65534;BME280;53640;55.838;37.184;2023-04-16T07:35:41;100533.47;;;8.39;15.17
65534;BME280;53640;55.838;37.184;2023-04-16T07:38:08;100541.19;;;8.42;15.40
65534;BME280;53640;55.838;37.184;2023-04-16T07:40:35;100547.59;;;8.41;14.94
65534;BME280;53640;55.838;37.184;2023-04-16T07:43:03;100534.66;;;8.36;15.54
65534;BME280;53640;55.838;37.184;2023-04-16T07:45:29;100507.03;;;8.26;15.28
65534;BME280;53640;55.838;37.184;2023-04-16T07:48:00;100648.19;;;9.14;15.27
65534;BME280;53640;55.838;37.184;2023-04-16T07:50:56;100590.88;;;8.95;15.34
65534;BME280;53640;55.838;37.184;2023-04-16T07:53:24;100516.13;;;8.65;15.26
65534;BME280;53640;55.838;37.184;2023-04-16T07:55:51;100534.72;;;8.91;15.37
65534;BME280;53640;55.838;37.184;2023-04-16T07:58:18;100569.41;;;9.33;14.89
65534;BME280;53640;55.838;37.184;2023-04-16T08:00:47;100533.31;;;9.26;14.59
65534;BME280;53640;55.838;37.184;2023-04-16T08:03:20;100517.38;;;9.31;14.81
65534;BME280;53640;55.838;37.184;2023-04-16T08:06:08;100483.75;;;9.33;14.38
65534;BME280;53640;55.838;37.184;2023-04-16T08:08:36;100486.72;;;9.62;14.50
65534;BME280;53640;55.838;37.184;2023-04-16T08:11:04;100551.50;;;10.22;14.48
65534;BME280;53640;55.838;37.184;2023-04-16T08:13:55;100600.78;;;11.07;13.75
65534;BME280;53640;55.838;37.184;2023-04-16T08:16:30;100474.31;;;10.41;13.74
65534;BME280;53640;55.838;37.184;2023-04-16T08:19:51;100482.69;;;10.76;13.78
65534;BME280;53640;55.838;37.184;2023-04-16T08:22:22;100527.09;;;11.18;12.97
65534;BME280;53640;55.838;37.184;2023-04-16T08:25:01;100501.34;;;11.07;13.21
65534;BME280;53640;55.838;37.184;2023-04-16T08:27:30;100478.19;;;11.05;13.11
65534;BME280;53640;55.838;37.184;2023-04-16T08:29:57;100462.59;;;11.07;12.69
65534;BME280;53640;55.838;37.184;2023-04-16T08:32:39;100602.06;;;11.90;12.61
65534;BME280;53640;55.838;37.184;2023-04-16T08:35:11;100491.47;;;11.21;12.55
65534;BME280;53640;55.838;37.184;2023-04-16T08:38:01;100528.34;;;11.65;12.85
65534;BME280;53640;55.838;37.184;2023-04-16T08:45:34;100593.00;;;12.04;12.61
65534;BME280;53640;55.838;37.184;2023-04-16T09:06:29;100569.56;;;12.31;12.37
65534;BME280;53640;55.838;37.184;2023-04-16T09:22:48;100555.47;;;12.14;12.92
65534;BME280;53640;55.838;37.184;2023-04-16T09:25:50;100506.00;;;11.84;12.71
65534;BME280;53640;55.838;37.184;2023-04-16T09:29:49;100491.88;;;11.95;12.65
65534;BME280;53640;55.838;37.184;2023-04-16T09:33:28;100548.06;;;12.36;12.77
65534;BME280;53640;55.838;37.184;2023-04-16T09:36:36;100458.00;;;11.85;12.88
65534;BME280;53640;55.838;37.184;2023-04-16T09:39:18;100429.59;;;11.81;12.06
65534;BME280;53640;55.838;37.184;2023-04-16T09:41:56;100445.00;;;12.08;12.66
65534;BME280;53640;55.838;37.184;2023-04-16T09:44:35;100452.22;;;12.36;12.74
65534;BME280;53640;55.838;37.184;2023-04-16T09:47:07;100465.06;;;12.68;12.52
65534;BME280;53640;55.838;37.184;2023-04-16T09:49:59;100515.19;;;13.60;11.73
65534;BME280;53640;55.838;37.184;2023-04-16T09:52:53;100528.75;;;14.33;11.77
65534;BME280;53640;55.838;37.184;2023-04-16T09:59:20;100461.25;;;15.44;11.59
65534;BME280;53640;55.838;37.184;2023-04-16T10:01:49;100390.66;;;15.54;11.47
65534;BME280;53640;55.838;37.184;2023-04-16T10:04:18;100528.88;;;16.72;11.36
65534;BME280;53640;55.838;37.184;2023-04-16T10:10:22;100432.13;;;16.85;10.35
65534;BME280;53640;55.838;37.184;2023-04-16T10:12:50;100471.53;;;17.49;10.29
65534;BME280;53640;55.838;37.184;2023-04-16T10:15:16;100427.53;;;17.62;10.43
65534;BME280;53640;55.838;37.184;2023-04-16T10:17:43;100494.47;;;18.13;9.81
65534;BME280;53640;55.838;37.184;2023-04-16T10:20:21;100470.00;;;18.23;10.18
65534;BME280;53640;55.838;37.184;2023-04-16T10:23:31;100419.19;;;18.44;10.05
65534;BME280;53640;55.838;37.184;2023-04-16T10:26:01;100480.06;;;19.15;9.67
65534;BME280;53640;55.838;37.184;2023-04-16T10:28:37;100434.19;;;18.99;9.33
65534;BME280;53640;55.838;37.184;2023-04-16T12:31:47;100326.00;;;22.71;6.82
65534;BME280;53640;55.838;37.184;2023-04-16T12:34:50;100428.47;;;23.00;6.99
65534;BME280;53640;55.838;37.184;2023-04-16T12:37:21;100356.34;;;22.71;7.07
65534;BME280;53640;55.838;37.184;2023-04-16T12:39:49;100384.00;;;23.01;7.26
65534;BME280;53640;55.838;37.184;2023-04-16T12:42:18;100386.22;;;23.30;7.05
65534;BME280;53640;55.838;37.184;2023-04-16T12:44:44;100383.97;;;23.58;6.98
65534;BME280;53640;55.838;37.184;2023-04-16T12:47:14;100321.00;;;23.49;6.72
65534;BME280;53640;55.838;37.184;2023-04-16T12:49:40;100374.28;;;23.75;6.65
65534;BME280;53640;55.838;37.184;2023-04-16T12:52:07;100298.94;;;23.14;6.97
65534;BME280;53640;55.838;37.184;2023-04-16T12:54:35;100323.78;;;23.39;7.22
65534;BME280;53640;55.838;37.184;2023-04-16T12:57:02;100371.72;;;23.94;6.26
65534;BME280;53640;55.838;37.184;2023-04-16T12:59:30;100298.66;;;23.41;6.88
65534;BME280;53640;55.838;37.184;2023-04-16T13:01:57;100338.41;;;23.50;7.16
65534;BME280;53640;55.838;37.184;2023-04-16T13:04:23;100286.53;;;23.01;6.69
65534;BME280;53640;55.838;37.184;2023-04-16T13:06:52;100311.41;;;22.86;6.84
65534;BME280;53640;55.838;37.184;2023-04-16T13:09:24;100259.09;;;21.97;7.24
65534;BME280;53640;55.838;37.184;2023-04-16T13:11:53;100299.72;;;21.54;7.41
65534;BME280;53640;55.838;37.184;2023-04-16T13:14:40;100267.28;;;21.19;7.19
65534;BME280;53640;55.838;37.184;2023-04-16T13:17:07;100327.31;;;21.59;7.22
65534;BME280;53640;55.838;37.184;2023-04-16T13:19:35;100368.53;;;21.97;7.71
65534;BME280;53640;55.838;37.184;2023-04-16T13:22:01;100262.25;;;21.53;7.68
65534;BME280;53640;55.838;37.184;2023-04-16T13:24:31;100261.66;;;21.46;7.72
65534;BME280;53640;55.838;37.184;2023-04-16T13:27:18;100352.88;;;22.07;7.53
65534;BME280;53640;55.838;37.184;2023-04-16T13:29:49;100309.41;;;21.62;7.57
65534;BME280;53640;55.838;37.184;2023-04-16T13:32:28;100278.03;;;21.21;7.48
65534;BME280;53640;55.838;37.184;2023-04-16T13:36:08;100324.53;;;21.17;7.82
65534;BME280;53640;55.838;37.184;2023-04-16T13:44:42;100205.97;;;18.18;8.92
65534;BME280;53640;55.838;37.184;2023-04-16T13:51:46;100273.41;;;17.38;9.40
65534;BME280;53640;55.838;37.184;2023-04-16T13:59:13;100203.16;;;16.03;10.29
65534;BME280;53640;55.838;37.184;2023-04-16T14:10:36;100318.44;;;15.31;10.44
65534;BME280;53640;55.838;37.184;2023-04-16T14:13:44;100291.94;;;14.95;10.68
65534;BME280;53640;55.838;37.184;2023-04-16T14:16:35;100274.81;;;14.63;10.86
65534;BME280;53640;55.838;37.184;2023-04-16T14:25:27;100277.56;;;14.25;11.49
65534;BME280;53640;55.838;37.184;2023-04-16T14:27:56;100208.84;;;13.59;11.68
65534;BME280;53640;55.838;37.184;2023-04-16T14:30:38;100193.28;;;13.28;11.84
65534;BME280;53640;55.838;37.184;2023-04-16T14:38:16;100231.94;;;13.43;11.60
65534;BME280;53640;55.838;37.184;2023-04-16T14:41:18;100209.97;;;13.38;12.10
65534;BME280;53640;55.838;37.184;2023-04-16T14:44:44;100247.03;;;13.33;12.07
65534;BME280;53640;55.838;37.184;2023-04-16T14:48:05;100275.84;;;13.47;11.76
65534;BME280;53640;55.838;37.184;2023-04-16T14:50:47;100175.00;;;12.70;11.75
65534;BME280;53640;55.838;37.184;2023-04-16T15:01:35;100199.69;;;12.56;12.27
65534;BME280;53640;55.838;37.184;2023-04-16T15:04:43;100158.38;;;12.27;12.45
65534;BME280;53640;55.838;37.184;2023-04-16T15:07:24;100187.56;;;12.45;12.31
65534;BME280;53640;55.838;37.184;2023-04-16T15:09:51;100189.69;;;12.50;12.17
65534;BME280;53640;55.838;37.184;2023-04-16T15:12:29;100298.75;;;13.13;12.43
65534;BME280;53640;55.838;37.184;2023-04-16T15:15:01;100196.78;;;12.57;12.58
65534;BME280;53640;55.838;37.184;2023-04-16T15:20:53;100176.50;;;12.53;12.17
65534;BME280;53640;55.838;37.184;2023-04-16T15:23:24;100210.34;;;12.84;12.38
65534;BME280;53640;55.838;37.184;2023-04-16T15:25:55;100276.94;;;13.19;12.44
65534;BME280;53640;55.838;37.184;2023-04-16T15:28:30;100167.31;;;12.47;12.43
65534;BME280;53640;55.838;37.184;2023-04-16T15:31:19;100167.31;;;12.41;12.56
65534;BME280;53640;55.838;37.184;2023-04-16T15:34:03;100218.91;;;12.54;12.74
65534;BME280;53640;55.838;37.184;2023-04-16T15:36:33;100172.56;;;12.16;12.64
65534;BME280;53640;55.838;37.184;2023-04-16T15:43:14;100219.94;;;12.33;12.84
65534;BME280;53640;55.838;37.184;2023-04-16T15:45:58;100231.63;;;12.34;12.89
65534;BME280;53640;55.838;37.184;2023-04-16T15:48:34;100213.88;;;12.18;13.17
65534;BME280;53640;55.838;37.184;2023-04-16T15:51:02;100219.75;;;12.08;13.43
65534;BME280;53640;55.838;37.184;2023-04-16T15:53:29;100178.34;;;11.80;13.27
65534;BME280;53640;55.838;37.184;2023-04-16T15:56:12;100161.59;;;11.69;13.29
65534;BME280;53640;55.838;37.184;2023-04-16T15:58:48;100226.59;;;11.97;13.38
65534;BME280;53640;55.838;37.184;2023-04-16T16:01:16;100185.44;;;11.74;13.51
65534;BME280;53640;55.838;37.184;2023-04-16T16:03:48;100233.06;;;11.96;13.32
65534;BME280;53640;55.838;37.184;2023-04-16T16:06:20;100287.84;;;12.27;13.29
65534;BME280;53640;55.838;37.184;2023-04-16T16:08:48;100241.81;;;11.85;13.62
65534;BME280;53640;55.838;37.184;2023-04-16T16:11:45;100227.19;;;11.80;13.48
65534;BME280;53640;55.838;37.184;2023-04-16T16:14:14;100159.41;;;11.32;13.54
65534;BME280;53640;55.838;37.184;2023-04-16T16:16:44;100185.50;;;11.39;13.57
65534;BME280;53640;55.838;37.184;2023-04-16T16:19:21;100219.34;;;11.57;13.75
65534;BME280;53640;55.838;37.184;2023-04-16T16:22:16;100201.59;;;11.41;13.64
65534;BME280;53640;55.838;37.184;2023-04-16T16:25:00;100209.28;;;11.37;13.94
65534;BME280;53640;55.838;37.184;2023-04-16T16:27:59;100314.47;;;11.96;13.79
65534;BME280;53640;55.838;37.184;2023-04-16T16:30:40;100302.34;;;11.92;13.93
65534;BME280;53640;55.838;37.184;2023-04-16T16:33:23;100307.09;;;11.84;14.23
65534;BME280;53640;55.838;37.184;2023-04-16T16:36:17;100206.50;;;11.17;14.18
65534;BME280;53640;55.838;37.184;2023-04-16T16:39:05;100213.19;;;11.21;14.16
65534;BME280;53640;55.838;37.184;2023-04-16T16:41:45;100203.31;;;11.07;14.07
65534;BME280;53640;55.838;37.184;2023-04-16T16:48:47;100229.56;;;11.07;14.04
65534;BME280;53640;55.838;37.184;2023-04-16T16:52:09;100172.03;;;10.70;14.50
65534;BME280;53640;55.838;37.184;2023-04-16T16:55:28;100286.03;;;11.38;14.38
65534;BME280;53640;55.838;37.184;2023-04-16T17:02:16;100325.84;;;11.37;14.40
65534;BME280;53640;55.838;37.184;2023-04-16T17:04:45;100226.81;;;10.72;14.37
65534;BME280;53640;55.838;37.184;2023-04-16T17:07:11;100240.22;;;10.80;14.75